sensor_id;sensor_type;location;lat;lon;timestamp;P1;durP1;ratioP1;P2;durP2;ratioP2
4278;SDS011;2153;47.744;10.580;2023-02-18T00:01:07;13.80;;;2.33;;
4278;SDS011;2153;47.744;10.580;2023-02-18T00:03:34;12.83;;;2.27;;
4278;SDS011;2153;47.744;10.580;2023-02-18T00:06:08;14.27;;;2.50;;
4278;SDS011;2153;47.744;10.580;2023-02-18T00:08:36;15.60;;;2.93;;
4278;SDS011;2153;47.744;10.580;2023-02-18T00:11:03;14.13;;;2.93;;
4278;SDS011;2153;47.744;10.580;2023-02-18T00:13:30;18.87;;;3.33;;
4278;SDS011;2153;47.744;10.580;2023-02-18T00:15:59;19.47;;;3.53;;
4278;SDS011;2153;47.744;10.580;2023-02-18T00:18:28;13.77;;;3.10;;
4278;SDS011;2153;47.744;10.580;2023-02-18T00:20:54;14.40;;;4.17;;
4278;SDS011;2153;47.744;10.580;2023-02-18T00:23:21;16.97;;;2.97;;
4278;SDS011;2153;47.744;10.580;2023-02-18T00:25:49;17.30;;;3.60;;
4278;SDS011;2153;47.744;10.580;2023-02-18T00:28:24;15.70;;;3.20;;
4278;SDS011;2153;47.744;10.580;2023-02-18T00:30:51;13.70;;;3.10;;
4278;SDS011;2153;47.744;10.580;2023-02-18T00:33:17;15.50;;;3.43;;
4278;SDS011;2153;47.744;10.580;2023-02-18T00:35:45;17.93;;;3.40;;
4278;SDS011;2153;47.744;10.580;2023-02-18T00:38:12;15.80;;;3.63;;
4278;SDS011;2153;47.744;10.580;2023-02-18T00:40:39;15.47;;;3.00;;
4278;SDS011;2153;47.744;10.580;2023-02-18T00:43:07;13.60;;;3.23;;
4278;SDS011;2153;47.744;10.580;2023-02-18T00:45:34;14.50;;;3.20;;
4278;SDS011;2153;47.744;10.580;2023-02-18T00:48:00;14.40;;;3.30;;
4278;SDS011;2153;47.744;10.580;2023-02-18T00:50:27;15.60;;;3.43;;
4278;SDS011;2153;47.744;10.580;2023-02-18T00:52:55;16.30;;;3.10;;
4278;SDS011;2153;47.744;10.580;2023-02-18T00:55:22;14.43;;;3.20;;
4278;SDS011;2153;47.744;10.580;2023-02-18T00:57:49;15.67;;;3.60;;
4278;SDS011;2153;47.744;10.580;2023-02-18T01:00:15;16.33;;;3.70;;
4278;SDS011;2153;47.744;10.580;2023-02-18T01:02:42;16.97;;;3.17;;
4278;SDS011;2153;47.744;10.580;2023-02-18T01:05:09;14.53;;;3.10;;
4278;SDS011;2153;47.744;10.580;2023-02-18T01:07:36;16.93;;;3.30;;
4278;SDS011;2153;47.744;10.580;2023-02-18T01:10:04;18.03;;;4.70;;
4278;SDS011;2153;47.744;10.580;2023-02-18T01:12:32;15.40;;;3.97;;
4278;SDS011;2153;47.744;10.580;2023-02-18T01:14:59;16.13;;;3.27;;
4278;SDS011;2153;47.744;10.580;2023-02-18T01:17:25;16.23;;;3.50;;
4278;SDS011;2153;47.744;10.580;2023-02-18T01:19:52;14.10;;;3.60;;
4278;SDS011;2153;47.744;10.580;2023-02-18T01:22:19;16.33;;;3.80;;
4278;SDS011;2153;47.744;10.580;2023-02-18T01:24:46;19.67;;;4.20;;
4278;SDS011;2153;47.744;10.580;2023-02-18T01:27:14;15.10;;;3.90;;
4278;SDS011;2153;47.744;10.580;2023-02-18T01:29:40;13.40;;;3.43;;
4278;SDS011;2153;47.744;10.580;2023-02-18T01:32:07;15.53;;;4.03;;
4278;SDS011;2153;47.744;10.580;2023-02-18T01:34:34;16.40;;;5.50;;
4278;SDS011;2153;47.744;10.580;2023-02-18T01:37:01;16.20;;;3.93;;
4278;SDS011;2153;47.744;10.580;2023-02-18T01:39:27;14.33;;;4.03;;
4278;SDS011;2153;47.744;10.580;2023-02-18T01:41:54;15.87;;;4.00;;
4278;SDS011;2153;47.744;10.580;2023-02-18T01:44:23;18.57;;;4.40;;
4278;SDS011;2153;47.744;10.580;2023-02-18T01:46:51;22.70;;;4.90;;
4278;SDS011;2153;47.744;10.580;2023-02-18T01:49:18;15.93;;;4.37;;
4278;SDS011;2153;47.744;10.580;2023-02-18T01:51:49;20.33;;;4.77;;
4278;SDS011;2153;47.744;10.580;2023-02-18T01:54:19;16.23;;;5.47;;
4278;SDS011;2153;47.744;10.580;2023-02-18T01:56:53;19.10;;;6.90;;
4278;SDS011;2153;47.744;10.580;2023-02-18T01:59:24;17.97;;;5.97;;
4278;SDS011;2153;47.744;10.580;2023-02-18T02:01:53;17.90;;;6.00;;
4278;SDS011;2153;47.744;10.580;2023-02-18T02:04:21;22.10;;;6.90;;
4278;SDS011;2153;47.744;10.580;2023-02-18T02:06:48;18.23;;;6.30;;
4278;SDS011;2153;47.744;10.580;2023-02-18T02:09:16;16.50;;;5.83;;
4278;SDS011;2153;47.744;10.580;2023-02-18T02:11:55;19.93;;;7.27;;
4278;SDS011;2153;47.744;10.580;2023-02-18T02:14:44;20.07;;;5.80;;
4278;SDS011;2153;47.744;10.580;2023-02-18T02:17:23;17.50;;;5.93;;
4278;SDS011;2153;47.744;10.580;2023-02-18T02:23:14;19.43;;;6.13;;
4278;SDS011;2153;47.744;10.580;2023-02-18T02:26:02;16.73;;;6.10;;
4278;SDS011;2153;47.744;10.580;2023-02-18T02:28:55;19.37;;;6.70;;
4278;SDS011;2153;47.744;10.580;2023-02-18T02:31:42;19.63;;;6.57;;
4278;SDS011;2153;47.744;10.580;2023-02-18T02:34:32;17.73;;;6.27;;
4278;SDS011;2153;47.744;10.580;2023-02-18T02:37:08;18.50;;;6.70;;
4278;SDS011;2153;47.744;10.580;2023-02-18T02:39:42;19.53;;;6.33;;
4278;SDS011;2153;47.744;10.580;2023-02-18T02:42:18;16.93;;;5.70;;
4278;SDS011;2153;47.744;10.580;2023-02-18T02:44:56;20.93;;;6.80;;
4278;SDS011;2153;47.744;10.580;2023-02-18T02:47:30;18.50;;;6.53;;
4278;SDS011;2153;47.744;10.580;2023-02-18T02:50:05;21.87;;;7.20;;
4278;SDS011;2153;47.744;10.580;2023-02-18T02:52:36;20.20;;;6.80;;
4278;SDS011;2153;47.744;10.580;2023-02-18T02:55:09;21.73;;;6.23;;
4278;SDS011;2153;47.744;10.580;2023-02-18T02:57:41;17.87;;;6.07;;
4278;SDS011;2153;47.744;10.580;2023-02-18T03:00:16;17.70;;;6.00;;
4278;SDS011;2153;47.744;10.580;2023-02-18T03:05:47;17.43;;;5.37;;
4278;SDS011;2153;47.744;10.580;2023-02-18T03:08:29;15.90;;;5.80;;
4278;SDS011;2153;47.744;10.580;2023-02-18T03:11:06;18.00;;;6.47;;
4278;SDS011;2153;47.744;10.580;2023-02-18T03:13:39;16.23;;;5.80;;
4278;SDS011;2153;47.744;10.580;2023-02-18T03:16:18;16.50;;;5.90;;
4278;SDS011;2153;47.744;10.580;2023-02-18T03:18:54;16.67;;;5.87;;
4278;SDS011;2153;47.744;10.580;2023-02-18T03:21:26;19.43;;;5.80;;
4278;SDS011;2153;47.744;10.580;2023-02-18T03:23:57;17.80;;;6.50;;
4278;SDS011;2153;47.744;10.580;2023-02-18T03:26:27;16.63;;;6.40;;
4278;SDS011;2153;47.744;10.580;2023-02-18T03:28:56;19.20;;;6.07;;
4278;SDS011;2153;47.744;10.580;2023-02-18T03:31:27;22.30;;;5.77;;
4278;SDS011;2153;47.744;10.580;2023-02-18T03:33:58;16.93;;;5.50;;
4278;SDS011;2153;47.744;10.580;2023-02-18T03:36:29;18.77;;;6.43;;
4278;SDS011;2153;47.744;10.580;2023-02-18T03:38:58;20.40;;;7.93;;
4278;SDS011;2153;47.744;10.580;2023-02-18T03:41:28;20.80;;;5.80;;
4278;SDS011;2153;47.744;10.580;2023-02-18T03:43:57;18.17;;;5.70;;
4278;SDS011;2153;47.744;10.580;2023-02-18T03:46:25;14.83;;;5.87;;
4278;SDS011;2153;47.744;10.580;2023-02-18T03:48:52;17.77;;;6.40;;
4278;SDS011;2153;47.744;10.580;2023-02-18T03:51:19;17.40;;;6.27;;
4278;SDS011;2153;47.744;10.580;2023-02-18T03:53:48;21.27;;;5.90;;
4278;SDS011;2153;47.744;10.580;2023-02-18T03:56:15;19.00;;;6.07;;
4278;SDS011;2153;47.744;10.580;2023-02-18T03:58:42;24.10;;;5.40;;
4278;SDS011;2153;47.744;10.580;2023-02-18T04:01:09;17.47;;;5.60;;
4278;SDS011;2153;47.744;10.580;2023-02-18T04:03:35;21.87;;;5.20;;
4278;SDS011;2153;47.744;10.580;2023-02-18T04:06:02;15.70;;;5.40;;
4278;SDS011;2153;47.744;10.580;2023-02-18T04:08:30;17.23;;;5.57;;
4278;SDS011;2153;47.744;10.580;2023-02-18T04:10:58;17.90;;;5.70;;
4278;SDS011;2153;47.744;10.580;2023-02-18T04:13:25;18.73;;;5.70;;
4278;SDS011;2153;47.744;10.580;2023-02-18T04:15:52;14.07;;;5.00;;
4278;SDS011;2153;47.744;10.580;2023-02-18T04:18:19;18.87;;;5.70;;
4278;SDS011;2153;47.744;10.580;2023-02-18T04:20:46;15.40;;;5.47;;
4278;SDS011;2153;47.744;10.580;2023-02-18T04:23:12;17.00;;;5.30;;
4278;SDS011;2153;47.744;10.580;2023-02-18T04:25:39;18.10;;;6.70;;
4278;SDS011;2153;47.744;10.580;2023-02-18T04:28:08;14.63;;;4.93;;
4278;SDS011;2153;47.744;10.580;2023-02-18T04:30:37;15.93;;;5.90;;
4278;SDS011;2153;47.744;10.580;2023-02-18T04:33:04;17.50;;;5.57;;
4278;SDS011;2153;47.744;10.580;2023-02-18T04:35:30;17.07;;;5.93;;
4278;SDS011;2153;47.744;10.580;2023-02-18T04:37:57;15.50;;;5.60;;
4278;SDS011;2153;47.744;10.580;2023-02-18T04:40:24;19.00;;;6.47;;
4278;SDS011;2153;47.744;10.580;2023-02-18T04:42:53;15.70;;;5.70;;
4278;SDS011;2153;47.744;10.580;2023-02-18T04:45:21;14.97;;;5.40;;
4278;SDS011;2153;47.744;10.580;2023-02-18T04:47:48;19.97;;;6.57;;
4278;SDS011;2153;47.744;10.580;2023-02-18T04:50:15;17.63;;;6.37;;
4278;SDS011;2153;47.744;10.580;2023-02-18T04:52:41;15.73;;;5.90;;
4278;SDS011;2153;47.744;10.580;2023-02-18T04:55:08;17.50;;;6.53;;
4278;SDS011;2153;47.744;10.580;2023-02-18T04:57:35;16.50;;;5.33;;
4278;SDS011;2153;47.744;10.580;2023-02-18T05:00:02;17.20;;;5.73;;
4278;SDS011;2153;47.744;10.580;2023-02-18T05:02:32;16.30;;;5.73;;
4278;SDS011;2153;47.744;10.580;2023-02-18T05:04:59;20.00;;;6.27;;
4278;SDS011;2153;47.744;10.580;2023-02-18T05:07:26;17.50;;;6.57;;
4278;SDS011;2153;47.744;10.580;2023-02-18T05:09:52;20.07;;;6.60;;
4278;SDS011;2153;47.744;10.580;2023-02-18T05:12:19;20.20;;;6.87;;
4278;SDS011;2153;47.744;10.580;2023-02-18T05:14:46;17.67;;;6.50;;
4278;SDS011;2153;47.744;10.580;2023-02-18T05:17:12;18.23;;;7.17;;
4278;SDS011;2153;47.744;10.580;2023-02-18T05:19:40;21.40;;;7.80;;
4278;SDS011;2153;47.744;10.580;2023-02-18T05:22:07;18.10;;;7.60;;
4278;SDS011;2153;47.744;10.580;2023-02-18T05:24:34;22.17;;;8.50;;
4278;SDS011;2153;47.744;10.580;2023-02-18T05:27:01;21.97;;;8.40;;
4278;SDS011;2153;47.744;10.580;2023-02-18T05:29:27;22.07;;;8.10;;
4278;SDS011;2153;47.744;10.580;2023-02-18T05:31:54;21.00;;;7.03;;
4278;SDS011;2153;47.744;10.580;2023-02-18T05:34:21;18.50;;;7.20;;
4278;SDS011;2153;47.744;10.580;2023-02-18T05:36:49;20.17;;;6.80;;
4278;SDS011;2153;47.744;10.580;2023-02-18T05:39:15;22.10;;;6.70;;
4278;SDS011;2153;47.744;10.580;2023-02-18T05:41:42;17.50;;;6.10;;
4278;SDS011;2153;47.744;10.580;2023-02-18T05:44:09;16.67;;;6.40;;
4278;SDS011;2153;47.744;10.580;2023-02-18T05:46:53;18.90;;;7.97;;
4278;SDS011;2153;47.744;10.580;2023-02-18T05:49:19;16.53;;;5.57;;
4278;SDS011;2153;47.744;10.580;2023-02-18T05:51:46;21.80;;;5.20;;
4278;SDS011;2153;47.744;10.580;2023-02-18T05:54:14;14.37;;;4.20;;
4278;SDS011;2153;47.744;10.580;2023-02-18T05:56:41;14.90;;;4.50;;
4278;SDS011;2153;47.744;10.580;2023-02-18T05:59:08;14.77;;;4.23;;
4278;SDS011;2153;47.744;10.580;2023-02-18T06:01:35;14.83;;;4.53;;
4278;SDS011;2153;47.744;10.580;2023-02-18T06:04:01;15.73;;;3.87;;
4278;SDS011;2153;47.744;10.580;2023-02-18T06:06:28;16.37;;;5.10;;
4278;SDS011;2153;47.744;10.580;2023-02-18T06:08:56;15.73;;;5.13;;
4278;SDS011;2153;47.744;10.580;2023-02-18T06:11:23;16.03;;;4.40;;
4278;SDS011;2153;47.744;10.580;2023-02-18T06:13:50;19.93;;;6.40;;
4278;SDS011;2153;47.744;10.580;2023-02-18T06:16:16;13.70;;;3.90;;
4278;SDS011;2153;47.744;10.580;2023-02-18T06:18:43;16.37;;;3.80;;
4278;SDS011;2153;47.744;10.580;2023-02-18T06:21:10;15.90;;;4.10;;
4278;SDS011;2153;47.744;10.580;2023-02-18T06:23:36;16.67;;;3.90;;
4278;SDS011;2153;47.744;10.580;2023-02-18T06:26:05;15.63;;;3.90;;
4278;SDS011;2153;47.744;10.580;2023-02-18T06:28:31;14.50;;;3.70;;
4278;SDS011;2153;47.744;10.580;2023-02-18T06:30:58;14.20;;;3.80;;
4278;SDS011;2153;47.744;10.580;2023-02-18T06:33:25;17.07;;;3.63;;
4278;SDS011;2153;47.744;10.580;2023-02-18T06:35:52;12.40;;;3.07;;
4278;SDS011;2153;47.744;10.580;2023-02-18T06:38:20;13.27;;;2.83;;
4278;SDS011;2153;47.744;10.580;2023-02-18T06:40:46;13.00;;;3.30;;
4278;SDS011;2153;47.744;10.580;2023-02-18T06:43:14;20.70;;;3.40;;
4278;SDS011;2153;47.744;10.580;2023-02-18T06:45:41;15.33;;;3.53;;
4278;SDS011;2153;47.744;10.580;2023-02-18T06:48:08;12.90;;;3.33;;
4278;SDS011;2153;47.744;10.580;2023-02-18T06:50:35;19.80;;;4.93;;
4278;SDS011;2153;47.744;10.580;2023-02-18T06:53:02;15.30;;;3.87;;
4278;SDS011;2153;47.744;10.580;2023-02-18T06:55:29;15.00;;;3.70;;
4278;SDS011;2153;47.744;10.580;2023-02-18T06:57:55;17.50;;;3.77;;
4278;SDS011;2153;47.744;10.580;2023-02-18T07:00:24;13.07;;;3.47;;
4278;SDS011;2153;47.744;10.580;2023-02-18T07:02:50;12.97;;;2.70;;
4278;SDS011;2153;47.744;10.580;2023-02-18T07:05:17;11.93;;;2.57;;
4278;SDS011;2153;47.744;10.580;2023-02-18T07:07:44;12.83;;;2.40;;
4278;SDS011;2153;47.744;10.580;2023-02-18T07:10:11;13.43;;;2.47;;
4278;SDS011;2153;47.744;10.580;2023-02-18T07:12:37;12.67;;;2.00;;
4278;SDS011;2153;47.744;10.580;2023-02-18T07:15:04;12.10;;;2.10;;
4278;SDS011;2153;47.744;10.580;2023-02-18T07:17:33;11.67;;;2.43;;
4278;SDS011;2153;47.744;10.580;2023-02-18T07:19:59;12.67;;;1.97;;
4278;SDS011;2153;47.744;10.580;2023-02-18T07:22:26;12.60;;;2.20;;
4278;SDS011;2153;47.744;10.580;2023-02-18T07:24:53;12.63;;;2.17;;
4278;SDS011;2153;47.744;10.580;2023-02-18T07:27:20;11.90;;;2.00;;
4278;SDS011;2153;47.744;10.580;2023-02-18T07:29:47;12.57;;;1.97;;
4278;SDS011;2153;47.744;10.580;2023-02-18T07:32:15;14.17;;;2.30;;
4278;SDS011;2153;47.744;10.580;2023-02-18T07:34:44;11.70;;;2.30;;
4278;SDS011;2153;47.744;10.580;2023-02-18T07:37:11;11.63;;;1.80;;
4278;SDS011;2153;47.744;10.580;2023-02-18T07:39:38;12.90;;;2.23;;
4278;SDS011;2153;47.744;10.580;2023-02-18T07:42:13;13.43;;;3.20;;
4278;SDS011;2153;47.744;10.580;2023-02-18T07:44:40;12.00;;;2.00;;
4278;SDS011;2153;47.744;10.580;2023-02-18T07:47:07;12.20;;;2.13;;
4278;SDS011;2153;47.744;10.580;2023-02-18T07:49:37;11.63;;;1.80;;
4278;SDS011;2153;47.744;10.580;2023-02-18T07:52:05;13.53;;;2.13;;
4278;SDS011;2153;47.744;10.580;2023-02-18T07:54:32;12.40;;;2.00;;
4278;SDS011;2153;47.744;10.580;2023-02-18T07:56:59;15.23;;;2.10;;
4278;SDS011;2153;47.744;10.580;2023-02-18T07:59:25;14.73;;;1.93;;
4278;SDS011;2153;47.744;10.580;2023-02-18T08:01:52;13.10;;;1.40;;
4278;SDS011;2153;47.744;10.580;2023-02-18T08:04:19;14.87;;;1.77;;
4278;SDS011;2153;47.744;10.580;2023-02-18T08:06:46;12.10;;;2.00;;
4278;SDS011;2153;47.744;10.580;2023-02-18T08:09:16;16.13;;;2.37;;
4278;SDS011;2153;47.744;10.580;2023-02-18T08:11:43;16.07;;;1.80;;
4278;SDS011;2153;47.744;10.580;2023-02-18T08:14:20;13.87;;;2.17;;
4278;SDS011;2153;47.744;10.580;2023-02-18T08:16:47;11.93;;;1.87;;
4278;SDS011;2153;47.744;10.580;2023-02-18T08:19:13;11.67;;;1.70;;
4278;SDS011;2153;47.744;10.580;2023-02-18T08:21:40;12.30;;;1.80;;
4278;SDS011;2153;47.744;10.580;2023-02-18T08:24:07;15.03;;;2.00;;
4278;SDS011;2153;47.744;10.580;2023-02-18T08:26:35;13.43;;;2.00;;
4278;SDS011;2153;47.744;10.580;2023-02-18T08:29:02;13.40;;;2.00;;
4278;SDS011;2153;47.744;10.580;2023-02-18T08:31:29;12.80;;;1.70;;
4278;SDS011;2153;47.744;10.580;2023-02-18T08:33:56;14.40;;;1.90;;
4278;SDS011;2153;47.744;10.580;2023-02-18T08:36:24;12.13;;;1.90;;
4278;SDS011;2153;47.744;10.580;2023-02-18T08:38:52;13.40;;;1.90;;
4278;SDS011;2153;47.744;10.580;2023-02-18T08:41:19;15.20;;;2.33;;
4278;SDS011;2153;47.744;10.580;2023-02-18T08:43:47;12.07;;;1.80;;
4278;SDS011;2153;47.744;10.580;2023-02-18T08:46:14;12.20;;;1.80;;
4278;SDS011;2153;47.744;10.580;2023-02-18T08:48:41;12.20;;;1.90;;
4278;SDS011;2153;47.744;10.580;2023-02-18T08:51:12;13.13;;;1.77;;
4278;SDS011;2153;47.744;10.580;2023-02-18T08:53:40;12.43;;;1.77;;
4278;SDS011;2153;47.744;10.580;2023-02-18T08:56:07;12.30;;;2.10;;
4278;SDS011;2153;47.744;10.580;2023-02-18T08:58:34;15.73;;;1.83;;
4278;SDS011;2153;47.744;10.580;2023-02-18T09:01:04;12.80;;;2.10;;
4278;SDS011;2153;47.744;10.580;2023-02-18T09:03:33;12.73;;;1.80;;
4278;SDS011;2153;47.744;10.580;2023-02-18T09:06:00;13.13;;;1.67;;
4278;SDS011;2153;47.744;10.580;2023-02-18T09:08:27;13.80;;;2.10;;
4278;SDS011;2153;47.744;10.580;2023-02-18T09:10:54;12.50;;;2.00;;
4278;SDS011;2153;47.744;10.580;2023-02-18T09:13:22;12.75;;;1.65;;
4278;SDS011;2153;47.744;10.580;2023-02-18T09:15:55;14.20;;;3.10;;
4278;SDS011;2153;47.744;10.580;2023-02-18T09:18:24;13.10;;;2.40;;
4278;SDS011;2153;47.744;10.580;2023-02-18T09:20:51;12.43;;;1.93;;
4278;SDS011;2153;47.744;10.580;2023-02-18T09:23:20;16.43;;;2.00;;
4278;SDS011;2153;47.744;10.580;2023-02-18T09:25:47;12.93;;;2.30;;
4278;SDS011;2153;47.744;10.580;2023-02-18T09:28:14;12.87;;;1.70;;
4278;SDS011;2153;47.744;10.580;2023-02-18T09:30:40;12.13;;;1.60;;
4278;SDS011;2153;47.744;10.580;2023-02-18T09:33:07;18.20;;;2.20;;
4278;SDS011;2153;47.744;10.580;2023-02-18T09:35:38;12.90;;;2.13;;
4278;SDS011;2153;47.744;10.580;2023-02-18T09:38:06;12.03;;;1.77;;
4278;SDS011;2153;47.744;10.580;2023-02-18T09:40:33;12.37;;;2.03;;
4278;SDS011;2153;47.744;10.580;2023-02-18T09:43:02;13.33;;;1.73;;
4278;SDS011;2153;47.744;10.580;2023-02-18T09:45:29;12.20;;;1.90;;
4278;SDS011;2153;47.744;10.580;2023-02-18T09:47:55;16.70;;;1.93;;
4278;SDS011;2153;47.744;10.580;2023-02-18T09:50:25;13.50;;;2.47;;
4278;SDS011;2153;47.744;10.580;2023-02-18T09:52:55;14.07;;;2.37;;
4278;SDS011;2153;47.744;10.580;2023-02-18T09:55:26;14.33;;;2.00;;
4278;SDS011;2153;47.744;10.580;2023-02-18T09:57:55;12.90;;;1.90;;
4278;SDS011;2153;47.744;10.580;2023-02-18T10:00:26;12.93;;;2.20;;
4278;SDS011;2153;47.744;10.580;2023-02-18T10:02:56;12.80;;;1.73;;
4278;SDS011;2153;47.744;10.580;2023-02-18T10:05:26;14.80;;;1.70;;
4278;SDS011;2153;47.744;10.580;2023-02-18T10:07:57;17.60;;;1.90;;
4278;SDS011;2153;47.744;10.580;2023-02-18T10:10:30;12.63;;;1.60;;
4278;SDS011;2153;47.744;10.580;2023-02-18T10:13:02;13.90;;;1.83;;
4278;SDS011;2153;47.744;10.580;2023-02-18T10:15:29;12.80;;;2.07;;
4278;SDS011;2153;47.744;10.580;2023-02-18T10:17:58;12.20;;;1.87;;
4278;SDS011;2153;47.744;10.580;2023-02-18T10:20:26;12.57;;;1.70;;
4278;SDS011;2153;47.744;10.580;2023-02-18T10:22:57;13.30;;;2.07;;
4278;SDS011;2153;47.744;10.580;2023-02-18T10:25:26;11.57;;;1.77;;
4278;SDS011;2153;47.744;10.580;2023-02-18T10:27:54;13.97;;;1.77;;
4278;SDS011;2153;47.744;10.580;2023-02-18T10:30:26;15.03;;;1.90;;
4278;SDS011;2153;47.744;10.580;2023-02-18T10:33:00;12.90;;;1.60;;
4278;SDS011;2153;47.744;10.580;2023-02-18T10:35:37;13.10;;;1.90;;
4278;SDS011;2153;47.744;10.580;2023-02-18T10:38:14;14.23;;;1.80;;
4278;SDS011;2153;47.744;10.580;2023-02-18T10:40:53;13.90;;;1.50;;
4278;SDS011;2153;47.744;10.580;2023-02-18T10:43:31;11.90;;;1.80;;
4278;SDS011;2153;47.744;10.580;2023-02-18T10:46:06;11.30;;;1.57;;
4278;SDS011;2153;47.744;10.580;2023-02-18T10:48:55;12.70;;;1.67;;
4278;SDS011;2153;47.744;10.580;2023-02-18T10:51:46;11.73;;;1.50;;
4278;SDS011;2153;47.744;10.580;2023-02-18T10:54:17;16.27;;;2.23;;
4278;SDS011;2153;47.744;10.580;2023-02-18T10:56:49;12.43;;;1.63;;
4278;SDS011;2153;47.744;10.580;2023-02-18T10:59:18;12.10;;;1.67;;
4278;SDS011;2153;47.744;10.580;2023-02-18T11:01:52;12.00;;;1.50;;
4278;SDS011;2153;47.744;10.580;2023-02-18T11:04:22;12.47;;;1.90;;
4278;SDS011;2153;47.744;10.580;2023-02-18T11:06:51;14.53;;;1.70;;
4278;SDS011;2153;47.744;10.580;2023-02-18T11:09:24;13.20;;;2.00;;
4278;SDS011;2153;47.744;10.580;2023-02-18T11:11:58;13.87;;;1.80;;
4278;SDS011;2153;47.744;10.580;2023-02-18T11:14:38;12.50;;;1.80;;
4278;SDS011;2153;47.744;10.580;2023-02-18T11:17:09;12.63;;;2.23;;
4278;SDS011;2153;47.744;10.580;2023-02-18T11:19:50;11.60;;;1.80;;
4278;SDS011;2153;47.744;10.580;2023-02-18T11:22:19;11.63;;;1.60;;
4278;SDS011;2153;47.744;10.580;2023-02-18T11:24:49;11.93;;;1.80;;
4278;SDS011;2153;47.744;10.580;2023-02-18T11:27:21;15.23;;;2.20;;
4278;SDS011;2153;47.744;10.580;2023-02-18T11:29:52;14.77;;;2.90;;
4278;SDS011;2153;47.744;10.580;2023-02-18T11:32:24;15.03;;;2.90;;
4278;SDS011;2153;47.744;10.580;2023-02-18T11:34:52;20.30;;;4.70;;
4278;SDS011;2153;47.744;10.580;2023-02-18T11:37:20;47.13;;;20.53;;
4278;SDS011;2153;47.744;10.580;2023-02-18T11:39:50;12.00;;;1.93;;
4278;SDS011;2153;47.744;10.580;2023-02-18T11:42:20;34.30;;;12.27;;
4278;SDS011;2153;47.744;10.580;2023-02-18T11:44:51;14.53;;;1.70;;
4278;SDS011;2153;47.744;10.580;2023-02-18T11:47:20;13.73;;;2.73;;
4278;SDS011;2153;47.744;10.580;2023-02-18T11:50:09;15.60;;;4.00;;
4278;SDS011;2153;47.744;10.580;2023-02-18T11:52:42;17.20;;;2.20;;
4278;SDS011;2153;47.744;10.580;2023-02-18T11:55:15;12.77;;;2.17;;
4278;SDS011;2153;47.744;10.580;2023-02-18T11:57:45;12.20;;;2.13;;
4278;SDS011;2153;47.744;10.580;2023-02-18T12:00:17;13.40;;;1.80;;
4278;SDS011;2153;47.744;10.580;2023-02-18T12:02:46;15.90;;;3.73;;
4278;SDS011;2153;47.744;10.580;2023-02-18T12:05:15;13.60;;;2.43;;
4278;SDS011;2153;47.744;10.580;2023-02-18T12:07:46;12.60;;;1.67;;
4278;SDS011;2153;47.744;10.580;2023-02-18T12:10:20;12.30;;;2.07;;
4278;SDS011;2153;47.744;10.580;2023-02-18T12:12:53;17.87;;;4.50;;
4278;SDS011;2153;47.744;10.580;2023-02-18T12:15:28;16.60;;;3.43;;
4278;SDS011;2153;47.744;10.580;2023-02-18T12:18:06;13.80;;;2.30;;
4278;SDS011;2153;47.744;10.580;2023-02-18T12:20:47;14.00;;;3.20;;
4278;SDS011;2153;47.744;10.580;2023-02-18T12:23:22;16.60;;;1.83;;
4278;SDS011;2153;47.744;10.580;2023-02-18T12:25:58;11.63;;;1.80;;
4278;SDS011;2153;47.744;10.580;2023-02-18T12:28:37;12.93;;;2.23;;
4278;SDS011;2153;47.744;10.580;2023-02-18T12:34:13;13.70;;;1.40;;
4278;SDS011;2153;47.744;10.580;2023-02-18T12:36:55;12.80;;;2.63;;
4278;SDS011;2153;47.744;10.580;2023-02-18T12:39:32;11.77;;;1.40;;
4278;SDS011;2153;47.744;10.580;2023-02-18T12:42:20;12.70;;;1.30;;
4278;SDS011;2153;47.744;10.580;2023-02-18T12:45:00;11.13;;;1.27;;
4278;SDS011;2153;47.744;10.580;2023-02-18T12:47:48;10.97;;;1.13;;
4278;SDS011;2153;47.744;10.580;2023-02-18T12:50:37;11.60;;;1.50;;
4278;SDS011;2153;47.744;10.580;2023-02-18T12:53:25;15.40;;;1.83;;
4278;SDS011;2153;47.744;10.580;2023-02-18T12:56:10;11.17;;;1.50;;
4278;SDS011;2153;47.744;10.580;2023-02-18T12:58:55;11.50;;;1.70;;
4278;SDS011;2153;47.744;10.580;2023-02-18T13:01:34;11.60;;;1.40;;
4278;SDS011;2153;47.744;10.580;2023-02-18T13:07:18;11.87;;;1.67;;
4278;SDS011;2153;47.744;10.580;2023-02-18T13:13:02;12.53;;;1.53;;
4278;SDS011;2153;47.744;10.580;2023-02-18T13:15:37;12.80;;;1.60;;
4278;SDS011;2153;47.744;10.580;2023-02-18T13:18:08;11.57;;;1.70;;
4278;SDS011;2153;47.744;10.580;2023-02-18T13:20:39;12.93;;;1.43;;
4278;SDS011;2153;47.744;10.580;2023-02-18T13:23:11;13.00;;;1.50;;
4278;SDS011;2153;47.744;10.580;2023-02-18T13:25:44;11.53;;;1.60;;
4278;SDS011;2153;47.744;10.580;2023-02-18T13:28:14;13.00;;;1.87;;
4278;SDS011;2153;47.744;10.580;2023-02-18T13:30:48;12.30;;;1.37;;
4278;SDS011;2153;47.744;10.580;2023-02-18T13:33:35;11.70;;;1.40;;
4278;SDS011;2153;47.744;10.580;2023-02-18T13:36:10;16.67;;;1.80;;
4278;SDS011;2153;47.744;10.580;2023-02-18T13:38:48;15.97;;;2.47;;
4278;SDS011;2153;47.744;10.580;2023-02-18T13:41:19;14.30;;;3.37;;
4278;SDS011;2153;47.744;10.580;2023-02-18T13:43:46;15.73;;;2.70;;
4278;SDS011;2153;47.744;10.580;2023-02-18T13:46:15;14.13;;;3.23;;
4278;SDS011;2153;47.744;10.580;2023-02-18T13:48:44;15.83;;;4.93;;
4278;SDS011;2153;47.744;10.580;2023-02-18T13:51:13;13.33;;;2.50;;
4278;SDS011;2153;47.744;10.580;2023-02-18T13:53:42;11.53;;;1.90;;
4278;SDS011;2153;47.744;10.580;2023-02-18T13:56:19;11.77;;;1.77;;
4278;SDS011;2153;47.744;10.580;2023-02-18T13:58:48;11.70;;;1.93;;
4278;SDS011;2153;47.744;10.580;2023-02-18T14:01:23;11.30;;;1.63;;
4278;SDS011;2153;47.744;10.580;2023-02-18T14:04:01;14.73;;;3.00;;
4278;SDS011;2153;47.744;10.580;2023-02-18T14:06:30;12.20;;;2.27;;
4278;SDS011;2153;47.744;10.580;2023-02-18T14:12:21;11.73;;;1.90;;
4278;SDS011;2153;47.744;10.580;2023-02-18T14:14:51;10.90;;;1.30;;
4278;SDS011;2153;47.744;10.580;2023-02-18T14:20:32;14.07;;;1.60;;
4278;SDS011;2153;47.744;10.580;2023-02-18T14:26:08;13.33;;;2.10;;
4278;SDS011;2153;47.744;10.580;2023-02-18T14:28:44;11.73;;;1.57;;
4278;SDS011;2153;47.744;10.580;2023-02-18T14:31:22;15.80;;;2.00;;
4278;SDS011;2153;47.744;10.580;2023-02-18T14:37:27;11.50;;;1.77;;
4278;SDS011;2153;47.744;10.580;2023-02-18T14:40:15;12.40;;;1.80;;
4278;SDS011;2153;47.744;10.580;2023-02-18T14:42:50;12.10;;;1.80;;
4278;SDS011;2153;47.744;10.580;2023-02-18T14:45:27;12.90;;;1.70;;
4278;SDS011;2153;47.744;10.580;2023-02-18T14:48:06;12.97;;;1.90;;
4278;SDS011;2153;47.744;10.580;2023-02-18T14:50:46;12.35;;;1.70;;
4278;SDS011;2153;47.744;10.580;2023-02-18T14:53:14;15.00;;;2.10;;
4278;SDS011;2153;47.744;10.580;2023-02-18T14:55:45;12.20;;;1.70;;
4278;SDS011;2153;47.744;10.580;2023-02-18T14:58:16;15.80;;;1.90;;
4278;SDS011;2153;47.744;10.580;2023-02-18T15:00:52;13.00;;;1.73;;
4278;SDS011;2153;47.744;10.580;2023-02-18T15:03:19;11.90;;;1.67;;
4278;SDS011;2153;47.744;10.580;2023-02-18T15:05:48;11.90;;;1.70;;
4278;SDS011;2153;47.744;10.580;2023-02-18T15:08:17;13.70;;;1.80;;
4278;SDS011;2153;47.744;10.580;2023-02-18T15:10:45;14.00;;;2.20;;
4278;SDS011;2153;47.744;10.580;2023-02-18T15:13:17;12.43;;;2.10;;
4278;SDS011;2153;47.744;10.580;2023-02-18T15:15:47;13.10;;;2.20;;
4278;SDS011;2153;47.744;10.580;2023-02-18T15:18:20;13.73;;;1.97;;
4278;SDS011;2153;47.744;10.580;2023-02-18T15:20:54;14.10;;;1.83;;
4278;SDS011;2153;47.744;10.580;2023-02-18T15:23:22;13.10;;;2.13;;
4278;SDS011;2153;47.744;10.580;2023-02-18T15:25:51;14.43;;;2.27;;
4278;SDS011;2153;47.744;10.580;2023-02-18T15:28:21;12.30;;;2.10;;
4278;SDS011;2153;47.744;10.580;2023-02-18T15:30:49;12.20;;;1.90;;
4278;SDS011;2153;47.744;10.580;2023-02-18T15:33:17;17.30;;;2.60;;
4278;SDS011;2153;47.744;10.580;2023-02-18T15:35:45;13.43;;;2.40;;